createdAt,value
2019-05-11T00:01:49.097Z,5.55
2019-05-11T00:04:17.361Z,5.58
2019-05-11T00:06:45.615Z,6.05
2019-05-11T00:09:13.944Z,4.75
2019-05-11T00:11:42.790Z,5.03
2019-05-11T00:14:11.058Z,4.53
2019-05-11T00:16:39.345Z,4.65
2019-05-11T00:19:07.625Z,4.97
2019-05-11T00:21:36.194Z,4.63
2019-05-11T00:24:04.520Z,4.22
2019-05-11T00:26:32.874Z,4.05
2019-05-11T00:29:01.261Z,4.33
2019-05-11T00:31:30.850Z,4.03
2019-05-11T00:33:59.246Z,3.50
2019-05-11T00:36:27.509Z,4.33
2019-05-11T00:38:55.761Z,4.37
2019-05-11T00:41:24.098Z,4.10
2019-05-11T00:43:52.351Z,4.45
2019-05-11T00:46:20.653Z,3.08
2019-05-11T00:48:48.981Z,3.83
2019-05-11T00:51:17.218Z,3.13
2019-05-11T00:53:45.487Z,4.12
2019-05-11T00:56:13.730Z,4.03
2019-05-11T00:58:42.011Z,4.25
2019-05-11T01:01:10.282Z,4.53
2019-05-11T01:03:38.542Z,3.50
2019-05-11T01:06:06.825Z,3.37
2019-05-11T01:08:35.166Z,5.28
2019-05-11T01:11:03.425Z,4.65
2019-05-11T01:13:31.697Z,3.50
2019-05-11T01:15:59.948Z,4.57
2019-05-11T01:18:28.208Z,3.30
2019-05-11T01:20:56.472Z,3.37
2019-05-11T01:23:24.736Z,3.85
2019-05-11T01:25:52.993Z,2.92
2019-05-11T01:28:21.233Z,3.70
2019-05-11T01:30:49.506Z,2.98
2019-05-11T01:33:17.789Z,3.35
2019-05-11T01:35:46.343Z,3.60
2019-05-11T01:38:14.616Z,4.17
2019-05-11T01:40:57.650Z,3.93
2019-05-11T01:43:13.165Z,4.28
2019-05-11T01:45:41.445Z,4.57
2019-05-11T01:48:09.690Z,3.33
2019-05-11T01:50:37.973Z,4.13
2019-05-11T01:53:06.416Z,4.47
2019-05-11T01:55:34.670Z,3.90
2019-05-11T01:58:02.947Z,3.80
2019-05-11T02:00:31.270Z,3.67
2019-05-11T02:02:59.519Z,3.72
2019-05-11T02:05:28.266Z,3.20
2019-05-11T02:07:56.834Z,3.35
2019-05-11T02:10:25.100Z,3.43
2019-05-11T02:12:53.669Z,3.30
2019-05-11T02:15:21.942Z,2.93
2019-05-11T02:17:50.229Z,2.97
2019-05-11T02:20:18.480Z,4.07
2019-05-11T02:22:47.083Z,3.27
2019-05-11T02:25:15.335Z,3.20
2019-05-11T02:27:43.616Z,3.40
2019-05-11T02:30:12.219Z,4.30
2019-05-11T02:32:40.488Z,3.90
2019-05-11T02:35:08.813Z,3.72
2019-05-11T02:37:37.081Z,3.33
2019-05-11T02:40:05.858Z,3.17
2019-05-11T02:42:34.139Z,3.40
2019-05-11T02:45:02.946Z,3.55
2019-05-11T02:47:31.485Z,4.73
2019-05-11T02:49:59.752Z,3.47
2019-05-11T02:52:28.665Z,4.00
2019-05-11T02:54:56.954Z,3.30
2019-05-11T02:57:25.335Z,3.80
2019-05-11T02:59:53.719Z,3.87
2019-05-11T03:02:21.982Z,3.30
2019-05-11T03:04:50.373Z,3.50
2019-05-11T03:07:18.635Z,3.63
2019-05-11T03:09:46.882Z,2.93
2019-05-11T03:12:15.215Z,3.40
2019-05-11T03:14:43.749Z,3.87
2019-05-11T03:17:16.646Z,3.05
2019-05-11T03:19:44.894Z,3.77
2019-05-11T03:22:13.180Z,3.10
2019-05-11T03:24:41.418Z,2.98
2019-05-11T03:27:09.690Z,4.30
2019-05-11T03:29:37.962Z,4.20
2019-05-11T03:32:06.505Z,3.70
2019-05-11T03:34:34.778Z,2.90
2019-05-11T03:37:03.371Z,3.20
2019-05-11T03:39:31.719Z,3.33
2019-05-11T03:42:14.285Z,3.70
2019-05-11T03:44:29.990Z,3.70
2019-05-11T03:46:58.277Z,2.97
2019-05-11T03:49:26.889Z,3.80
2019-05-11T03:51:55.193Z,3.00
2019-05-11T03:54:23.431Z,4.13
2019-05-11T03:56:51.673Z,3.77
2019-05-11T03:59:20.046Z,3.17
2019-05-11T04:01:48.290Z,2.63
2019-05-11T04:04:16.967Z,2.90
2019-05-11T04:06:45.384Z,3.00
2019-05-11T04:09:13.710Z,2.80
2019-05-11T04:11:42.298Z,3.53
2019-05-11T04:14:10.630Z,2.70
2019-05-11T04:16:38.881Z,3.63
2019-05-11T04:19:07.154Z,4.07
2019-05-11T04:21:35.426Z,3.13
2019-05-11T04:24:03.666Z,2.60
2019-05-11T04:26:31.947Z,2.50
2019-05-11T04:29:00.274Z,3.03
2019-05-11T04:31:28.547Z,2.77
2019-05-11T04:33:57.107Z,3.27
2019-05-11T04:36:25.358Z,4.23
2019-05-11T04:38:53.625Z,3.10
2019-05-11T04:41:22.234Z,3.40
2019-05-11T04:43:50.507Z,3.77
2019-05-11T04:46:19.097Z,4.07
2019-05-11T04:48:47.359Z,3.27
2019-05-11T04:51:15.636Z,3.63
2019-05-11T04:53:44.253Z,3.10
2019-05-11T04:56:12.637Z,3.10
2019-05-11T04:58:40.887Z,3.30
2019-05-11T05:01:09.195Z,3.20
2019-05-11T05:03:40.789Z,3.00
2019-05-11T05:06:21.776Z,4.27
2019-05-11T05:08:37.714Z,3.83
2019-05-11T05:11:05.954Z,3.63
2019-05-11T05:13:34.214Z,6.90
2019-05-11T05:16:02.465Z,3.03
2019-05-11T05:18:30.718Z,3.30
2019-05-11T05:20:59.006Z,2.97
2019-05-11T05:23:27.275Z,3.37
2019-05-11T05:25:55.522Z,4.33
2019-05-11T05:28:23.802Z,4.47
2019-05-11T05:30:52.035Z,3.83
2019-05-11T05:33:20.296Z,4.80
2019-05-11T05:35:48.828Z,3.17
2019-05-11T05:38:17.100Z,3.37
2019-05-11T05:40:45.694Z,2.60
2019-05-11T05:43:25.904Z,2.97
2019-05-11T05:45:43.980Z,3.97
2019-05-11T05:48:12.347Z,3.80
2019-05-11T05:50:40.592Z,4.90
2019-05-11T05:53:08.837Z,3.10
2019-05-11T05:55:37.114Z,3.37
2019-05-11T05:58:05.614Z,3.73
2019-05-11T06:00:34.154Z,2.93
2019-05-11T06:03:02.406Z,3.43
2019-05-11T06:05:30.677Z,3.10
2019-05-11T06:07:58.983Z,2.87
2019-05-11T06:10:27.305Z,3.37
2019-05-11T06:12:55.575Z,3.63
2019-05-11T06:15:23.893Z,3.50
2019-05-11T06:17:52.195Z,4.03
2019-05-11T06:20:20.774Z,3.43
2019-05-11T06:22:49.037Z,3.70
2019-05-11T06:25:17.341Z,3.53
2019-05-11T06:27:45.622Z,4.83
2019-05-11T06:30:13.910Z,2.77
2019-05-11T06:32:42.302Z,3.20
2019-05-11T06:35:10.571Z,2.77
2019-05-11T06:37:38.832Z,3.67
2019-05-11T06:40:07.437Z,2.97
2019-05-11T06:42:35.683Z,4.20
2019-05-11T06:45:06.399Z,3.10
2019-05-11T06:47:34.666Z,3.20
2019-05-11T06:50:02.921Z,2.87
2019-05-11T06:52:31.291Z,6.00
2019-05-11T06:54:59.823Z,4.53
2019-05-11T06:57:28.097Z,3.73
2019-05-11T06:59:56.345Z,3.63
2019-05-11T07:02:24.615Z,4.97
2019-05-11T07:04:52.862Z,2.80
2019-05-11T07:07:21.140Z,4.90
2019-05-11T07:09:49.390Z,4.67
2019-05-11T07:12:17.823Z,2.87
2019-05-11T07:14:46.289Z,2.83
2019-05-11T07:17:14.538Z,3.33
2019-05-11T07:19:42.806Z,4.37
2019-05-11T07:22:11.097Z,4.27
2019-05-11T07:24:39.382Z,3.83
2019-05-11T07:27:07.622Z,3.47
2019-05-11T07:29:35.932Z,4.15
2019-05-11T07:32:12.177Z,2.70
2019-05-11T07:34:34.254Z,3.93
2019-05-11T07:37:02.534Z,4.00
2019-05-11T07:39:30.883Z,4.20
2019-05-11T07:41:59.153Z,3.30
2019-05-11T07:44:37.677Z,3.67
2019-05-11T07:46:58.664Z,3.60
2019-05-11T07:49:29.185Z,2.73
2019-05-11T07:51:58.677Z,3.63
2019-05-11T07:54:28.120Z,2.97
2019-05-11T07:56:58.430Z,2.43
2019-05-11T07:59:28.728Z,3.90
2019-05-11T08:01:58.335Z,3.13
2019-05-11T08:04:28.583Z,3.47
2019-05-11T08:06:58.397Z,1.73
2019-05-11T08:09:27.849Z,3.63
2019-05-11T08:11:58.494Z,2.27
2019-05-11T08:14:28.575Z,8.80
2019-05-11T08:16:59.059Z,10.00
2019-05-11T08:19:28.320Z,13.10
2019-05-11T08:21:58.189Z,4.50
2019-05-11T08:24:28.256Z,7.83
2019-05-11T08:26:58.196Z,9.63
2019-05-11T08:29:27.820Z,10.13
2019-05-11T08:31:57.921Z,12.57
2019-05-11T08:34:28.546Z,5.77
2019-05-11T08:36:58.433Z,16.20
2019-05-11T08:39:28.816Z,11.77
2019-05-11T08:41:58.992Z,16.50
2019-05-11T08:44:28.703Z,201.60
2019-05-11T08:46:58.223Z,9.10
2019-05-11T08:49:28.696Z,6.08
2019-05-11T08:51:57.997Z,7.80
2019-05-11T08:54:28.691Z,6.10
2019-05-11T08:56:58.538Z,5.30
2019-05-11T08:59:27.912Z,10.50
2019-05-11T09:01:58.561Z,6.87
2019-05-11T09:04:28.617Z,6.77
2019-05-11T09:06:58.468Z,6.23
2019-05-11T09:09:28.679Z,10.03
2019-05-11T09:11:58.903Z,9.07
2019-05-11T09:14:28.352Z,8.57
2019-05-11T09:16:57.753Z,6.67
2019-05-11T09:19:28.496Z,8.77
2019-05-11T09:21:58.818Z,6.53
2019-05-11T09:24:28.165Z,9.87
2019-05-11T09:26:58.564Z,10.57
2019-05-11T09:29:28.189Z,13.80
2019-05-11T09:31:58.260Z,13.30
2019-05-11T09:34:28.632Z,13.77
2019-05-11T09:36:58.699Z,10.83
2019-05-11T09:39:28.114Z,16.33
2019-05-11T09:41:58.442Z,20.00
2019-05-11T09:44:28.618Z,14.70
2019-05-11T09:46:59.975Z,17.40
2019-05-11T09:49:43.511Z,21.43
2019-05-11T09:51:58.722Z,22.42
2019-05-11T09:54:28.759Z,16.73
2019-05-11T09:56:57.851Z,28.83
2019-05-11T09:59:28.186Z,24.07
2019-05-11T10:01:58.763Z,31.68
2019-05-11T10:04:28.618Z,49.35
2019-05-11T10:06:58.382Z,58.23
2019-05-11T10:09:28.013Z,58.33
2019-05-11T10:11:58.512Z,58.87
2019-05-11T10:14:28.878Z,48.77
2019-05-11T10:16:58.423Z,38.75
2019-05-11T10:19:28.456Z,59.00
2019-05-11T10:21:58.091Z,52.20
2019-05-11T10:24:28.399Z,45.98
2019-05-11T10:26:57.814Z,55.90
2019-05-11T10:29:28.734Z,46.98
2019-05-11T10:31:58.724Z,47.53
2019-05-11T10:34:28.579Z,47.30
2019-05-11T10:36:57.981Z,45.47
2019-05-11T10:39:27.966Z,36.23
2019-05-11T10:41:58.419Z,34.17
2019-05-11T10:44:28.100Z,31.82
2019-05-11T10:46:58.676Z,33.33
2019-05-11T10:49:28.654Z,33.75
2019-05-11T10:51:58.714Z,35.25
2019-05-11T10:54:28.697Z,29.90
2019-05-11T10:56:57.940Z,26.20
2019-05-11T10:59:28.347Z,38.33
2019-05-11T11:01:58.807Z,51.73
2019-05-11T11:04:28.653Z,47.95
2019-05-11T11:06:58.947Z,41.90
2019-05-11T11:09:28.179Z,32.00
2019-05-11T11:11:57.935Z,44.55
2019-05-11T11:14:28.458Z,33.35
2019-05-11T11:16:58.436Z,33.20
2019-05-11T11:19:28.745Z,29.00
2019-05-11T11:22:07.828Z,34.50
2019-05-11T11:24:28.654Z,42.50
2019-05-11T11:26:57.661Z,37.15
2019-05-11T11:29:28.557Z,33.18
2019-05-11T11:31:58.493Z,57.70
2019-05-11T11:34:28.044Z,24.90
2019-05-11T11:36:58.021Z,22.73
2019-05-11T11:39:28.228Z,22.90
2019-05-11T11:41:58.374Z,24.32
2019-05-11T11:44:26.029Z,26.05
2019-05-11T11:46:55.388Z,23.70
2019-05-11T11:49:23.834Z,21.00
2019-05-11T11:51:52.100Z,25.92
2019-05-11T11:54:20.654Z,22.13
2019-05-11T11:56:48.883Z,28.17
2019-05-11T11:59:17.950Z,32.45
2019-05-11T12:01:48.536Z,23.90
2019-05-11T12:04:18.608Z,32.40
2019-05-11T12:06:46.341Z,20.95
2019-05-11T12:09:14.601Z,20.62
2019-05-11T12:11:42.853Z,26.77
2019-05-11T12:14:11.461Z,26.68
2019-05-11T12:16:40.049Z,19.60
2019-05-11T12:19:08.629Z,24.40
2019-05-11T12:21:37.938Z,26.62
2019-05-11T12:24:08.133Z,20.02
2019-05-11T12:26:38.659Z,18.65
2019-05-11T12:29:08.128Z,30.80
2019-05-11T12:31:37.902Z,21.57
2019-05-11T12:34:08.740Z,25.08
2019-05-11T12:36:38.670Z,20.05
2019-05-11T12:39:08.344Z,13.38
2019-05-11T12:41:38.731Z,18.27
2019-05-11T12:44:08.263Z,20.68
2019-05-11T12:46:39.319Z,12.15
2019-05-11T12:49:07.836Z,18.65
2019-05-11T12:51:38.304Z,10.20
2019-05-11T12:54:08.335Z,15.72
2019-05-11T12:56:38.322Z,15.53
2019-05-11T12:59:08.185Z,13.13
2019-05-11T13:01:38.146Z,12.58
2019-05-11T13:04:08.962Z,14.98
2019-05-11T13:06:38.524Z,16.23
2019-05-11T13:09:08.335Z,14.98
2019-05-11T13:11:38.025Z,19.50
2019-05-11T13:14:07.994Z,15.50
2019-05-11T13:16:37.834Z,13.50
2019-05-11T13:19:08.367Z,12.50
2019-05-11T13:21:38.340Z,66.97
2019-05-11T13:24:08.404Z,13.48
2019-05-11T13:26:38.079Z,15.70
2019-05-11T13:29:07.762Z,15.58
2019-05-11T13:31:38.385Z,15.65
2019-05-11T13:34:08.386Z,15.93
2019-05-11T13:36:38.210Z,17.07
2019-05-11T13:39:08.908Z,18.80
2019-05-11T13:41:38.381Z,21.10
2019-05-11T13:44:08.136Z,12.82
2019-05-11T13:46:38.708Z,16.27
2019-05-11T13:49:08.415Z,15.80
2019-05-11T13:51:38.594Z,20.95
2019-05-11T13:54:07.883Z,19.65
2019-05-11T13:56:37.967Z,16.03
2019-05-11T13:59:10.856Z,8.13
2019-05-11T14:01:39.354Z,11.28
2019-05-11T14:04:08.590Z,5.97
2019-05-11T14:06:37.831Z,14.17
2019-05-11T14:09:07.924Z,10.28
2019-05-11T14:11:38.752Z,14.78
2019-05-11T14:14:07.755Z,9.97
2019-05-11T14:16:37.954Z,10.20
2019-05-11T14:19:08.398Z,9.60
2019-05-11T14:21:38.531Z,14.20
2019-05-11T14:24:07.811Z,12.63
2019-05-11T14:26:38.401Z,14.50
2019-05-11T14:29:08.404Z,14.57
2019-05-11T14:31:37.973Z,15.65
2019-05-11T14:34:08.675Z,11.40
2019-05-11T14:36:38.537Z,11.73
2019-05-11T14:39:08.360Z,11.27
2019-05-11T14:41:38.080Z,13.80
2019-05-11T14:44:08.904Z,13.78
2019-05-11T14:46:38.443Z,13.03
2019-05-11T14:49:07.978Z,13.13
2019-05-11T14:51:38.855Z,10.83
2019-05-11T14:54:08.180Z,13.07
2019-05-11T14:56:37.976Z,17.42
2019-05-11T14:59:09.052Z,10.27
2019-05-11T15:01:38.235Z,14.50
2019-05-11T15:04:08.783Z,9.23
2019-05-11T15:06:38.666Z,12.37
2019-05-11T15:09:08.078Z,8.90
2019-05-11T15:11:38.594Z,13.10
2019-05-11T15:14:08.128Z,10.45
2019-05-11T15:16:38.358Z,10.08
2019-05-11T15:19:08.090Z,9.77
2019-05-11T15:21:38.503Z,15.00
2019-05-11T15:24:08.763Z,14.10
2019-05-11T15:26:38.141Z,12.90
2019-05-11T15:29:08.106Z,19.03
2019-05-11T15:31:38.057Z,17.67
2019-05-11T15:34:08.519Z,14.70
2019-05-11T15:36:38.685Z,24.40
2019-05-11T15:39:07.840Z,16.07
2019-05-11T15:41:38.590Z,14.93
2019-05-11T15:44:11.332Z,14.53
2019-05-11T15:46:38.749Z,14.03
2019-05-11T15:49:08.621Z,11.10
2019-05-11T15:51:40.775Z,19.07
2019-05-11T15:54:07.903Z,23.43
2019-05-11T15:56:38.588Z,24.67
2019-05-11T15:59:08.637Z,26.40
2019-05-11T16:01:38.347Z,20.63
2019-05-11T16:04:08.923Z,18.62
2019-05-11T16:06:36.702Z,23.37
2019-05-11T16:09:08.382Z,28.27
2019-05-11T16:11:38.680Z,18.13
2019-05-11T16:14:08.670Z,23.03
2019-05-11T16:16:38.736Z,20.53
2019-05-11T16:19:11.734Z,16.15
2019-05-11T16:21:38.135Z,19.32
2019-05-11T16:24:07.939Z,16.80
2019-05-11T16:26:36.554Z,19.53
2019-05-11T16:29:04.877Z,15.40
2019-05-11T16:31:33.165Z,21.37
2019-05-11T16:34:02.757Z,16.70
2019-05-11T16:36:31.167Z,17.13
2019-05-11T16:38:59.528Z,12.73
2019-05-11T16:41:29.066Z,12.30
2019-05-11T16:43:58.590Z,16.13
2019-05-11T16:46:28.382Z,15.97
2019-05-11T16:48:57.835Z,13.87
2019-05-11T16:51:28.254Z,13.40
2019-05-11T16:53:58.590Z,13.87
2019-05-11T16:56:26.248Z,11.23
2019-05-11T16:58:54.831Z,10.13
2019-05-11T17:01:23.446Z,11.18
2019-05-11T17:03:51.712Z,12.90
2019-05-11T17:06:19.974Z,11.30
2019-05-11T17:08:48.679Z,13.00
2019-05-11T17:11:18.700Z,9.83
2019-05-11T17:13:48.363Z,6.50
2019-05-11T17:16:17.903Z,11.90
2019-05-11T17:18:48.432Z,8.37
2019-05-11T17:21:18.311Z,8.73
2019-05-11T17:23:48.785Z,8.50
2019-05-11T17:26:19.065Z,10.60
2019-05-11T17:28:48.953Z,10.10
2019-05-11T17:31:18.864Z,10.53
2019-05-11T17:33:47.672Z,9.90
2019-05-11T17:36:18.452Z,8.87
2019-05-11T17:38:47.866Z,8.20
2019-05-11T17:41:16.491Z,7.13
2019-05-11T17:43:44.730Z,6.67
2019-05-11T17:46:12.987Z,7.33
2019-05-11T17:48:41.257Z,8.80
2019-05-11T17:51:20.522Z,5.77
2019-05-11T17:53:40.241Z,8.53
2019-05-11T17:56:08.570Z,5.23
2019-05-11T17:58:37.917Z,7.43
2019-05-11T18:01:09.135Z,9.87
2019-05-11T18:03:38.424Z,5.13
2019-05-11T18:06:08.476Z,6.70
2019-05-11T18:08:37.276Z,8.23
2019-05-11T18:11:08.177Z,8.80
2019-05-11T18:13:35.510Z,7.03
2019-05-11T18:16:03.758Z,8.30
2019-05-11T18:18:32.021Z,6.63
2019-05-11T18:21:00.270Z,5.53
2019-05-11T18:23:28.554Z,5.40
2019-05-11T18:25:56.943Z,5.70
2019-05-11T18:28:25.202Z,5.30
2019-05-11T18:30:53.716Z,5.87
2019-05-11T18:33:21.980Z,5.13
2019-05-11T18:35:50.249Z,7.10
2019-05-11T18:38:18.565Z,7.63
2019-05-11T18:40:48.654Z,5.07
2019-05-11T18:43:18.751Z,10.17
2019-05-11T18:45:48.807Z,8.27
2019-05-11T18:48:18.579Z,6.40
2019-05-11T18:50:49.096Z,5.40
2019-05-11T18:53:18.691Z,5.77
2019-05-11T18:55:48.623Z,4.57
2019-05-11T18:58:18.565Z,4.53
2019-05-11T19:00:48.813Z,3.87
2019-05-11T19:03:19.222Z,5.43
2019-05-11T19:05:48.092Z,4.33
2019-05-11T19:08:18.771Z,5.07
2019-05-11T19:10:48.743Z,4.37
2019-05-11T19:13:16.520Z,3.97
2019-05-11T19:15:45.107Z,4.10
2019-05-11T19:18:13.371Z,4.50
2019-05-11T19:20:45.806Z,4.17
2019-05-11T19:23:11.903Z,3.67
2019-05-11T19:25:40.149Z,5.93
2019-05-11T19:28:08.671Z,4.20
2019-05-11T19:30:38.316Z,4.87
2019-05-11T19:33:10.699Z,4.40
2019-05-11T19:35:37.824Z,6.57
2019-05-11T19:38:08.491Z,5.57
2019-05-11T19:40:38.446Z,3.20
2019-05-11T19:43:08.157Z,5.13
2019-05-11T19:45:38.360Z,4.23
2019-05-11T19:48:08.346Z,3.43
2019-05-11T19:50:40.321Z,4.77
2019-05-11T19:53:08.465Z,3.43
2019-05-11T19:55:36.988Z,2.97
2019-05-11T19:58:05.254Z,5.03
2019-05-11T20:00:33.503Z,3.23
2019-05-11T20:03:01.775Z,4.07
2019-05-11T20:05:30.363Z,3.27
2019-05-11T20:07:59.011Z,4.93
2019-05-11T20:10:27.844Z,5.00
2019-05-11T20:12:58.550Z,2.30
2019-05-11T20:15:26.618Z,2.80
2019-05-11T20:17:54.892Z,4.23
2019-05-11T20:20:23.137Z,3.73
2019-05-11T20:22:51.420Z,3.93
2019-05-11T20:25:19.672Z,4.00
2019-05-11T20:27:48.566Z,2.43
2019-05-11T20:30:18.434Z,3.17
2019-05-11T20:32:48.426Z,4.37
2019-05-11T20:35:17.336Z,4.20
2019-05-11T20:37:45.597Z,3.17
2019-05-11T20:40:14.171Z,3.33
2019-05-11T20:42:42.433Z,4.50
2019-05-11T20:45:10.761Z,2.93
2019-05-11T20:47:39.014Z,4.47
2019-05-11T20:50:07.941Z,4.10
2019-05-11T20:52:38.722Z,3.30
2019-05-11T20:55:08.862Z,3.50
2019-05-11T20:57:39.378Z,4.83
2019-05-11T21:00:09.578Z,3.20
2019-05-11T21:02:38.199Z,3.87
2019-05-11T21:05:09.087Z,3.33
2019-05-11T21:07:38.760Z,3.20
2019-05-11T21:10:08.663Z,3.40
2019-05-11T21:12:38.480Z,2.47
2019-05-11T21:15:08.098Z,4.17
2019-05-11T21:17:36.489Z,2.83
2019-05-11T21:20:07.929Z,4.30
2019-05-11T21:22:40.154Z,3.13
2019-05-11T21:25:09.033Z,3.17
2019-05-11T21:27:38.452Z,3.50
2019-05-11T21:30:09.135Z,4.10
2019-05-11T21:32:38.755Z,3.10
2019-05-11T21:35:08.786Z,3.83
2019-05-11T21:37:38.829Z,2.83
2019-05-11T21:40:08.836Z,2.57
2019-05-11T21:42:39.045Z,2.70
2019-05-11T21:45:09.131Z,2.70
2019-05-11T21:47:38.696Z,2.10
2019-05-11T21:50:08.352Z,2.77
2019-05-11T21:52:38.373Z,3.10
2019-05-11T21:55:09.481Z,1.97
2019-05-11T21:57:37.258Z,3.73
2019-05-11T22:00:09.645Z,3.53
2019-05-11T22:02:38.690Z,3.57
2019-05-11T22:05:07.598Z,1.87
2019-05-11T22:07:38.955Z,3.03
2019-05-11T22:10:08.826Z,3.43
2019-05-11T22:12:38.828Z,4.73
2019-05-11T22:15:09.464Z,2.33
2019-05-11T22:17:39.325Z,4.07
2019-05-11T22:20:08.357Z,1.50
2019-05-11T22:22:39.061Z,3.13
2019-05-11T22:25:07.892Z,3.13
2019-05-11T22:27:38.886Z,2.97
2019-05-11T22:30:08.594Z,2.73
2019-05-11T22:32:38.440Z,3.33
2019-05-11T22:35:08.663Z,1.53
2019-05-11T22:37:38.511Z,2.67
2019-05-11T22:40:08.271Z,2.40
2019-05-11T22:42:37.240Z,2.03
2019-05-11T22:45:08.425Z,2.87
2019-05-11T22:47:39.238Z,2.27
2019-05-11T22:50:10.389Z,2.80
2019-05-11T22:52:40.404Z,2.07
2019-05-11T22:55:12.112Z,3.47
2019-05-11T22:57:39.270Z,3.40
2019-05-11T23:00:08.380Z,2.63
2019-05-11T23:02:38.032Z,2.60
2019-05-11T23:05:08.509Z,2.20
2019-05-11T23:07:41.183Z,2.53
2019-05-11T23:10:08.973Z,2.03
2019-05-11T23:12:38.369Z,2.30
2019-05-11T23:15:08.912Z,2.57
2019-05-11T23:17:38.657Z,2.13
2019-05-11T23:20:07.192Z,3.53
2019-05-11T23:22:53.360Z,2.43
2019-05-11T23:25:08.035Z,2.93
2019-05-11T23:27:39.101Z,3.03
2019-05-11T23:30:08.847Z,3.60
2019-05-11T23:32:36.989Z,2.23
2019-05-11T23:35:08.357Z,2.40
2019-05-11T23:37:38.413Z,2.10
2019-05-11T23:40:09.168Z,1.90
2019-05-11T23:42:38.099Z,3.17
2019-05-11T23:45:08.403Z,2.53
2019-05-11T23:47:39.043Z,3.60
2019-05-11T23:50:08.163Z,2.03
2019-05-11T23:52:37.968Z,2.20
2019-05-11T23:55:08.156Z,2.00
2019-05-11T23:57:37.977Z,2.93
